JAL213 ROAH-RJTT
Flight info
| Callsign | JAL213 |
|---|---|
| Flight time | N/A |
| Altitude | 33000 |
| Route | AMAMI Y574 SHIBK Y57 SUKBO Y571 BILLY Y21 AKSEL |
| Aircraft | A359/H-SDE2E3GHIJ3J4J5LM1ORWXY/LB1D1 |
Departure
| Time | 2026-04-10 14:27 |
|---|---|
| Airport | Naha International Airport (ROAH) |
Arrival
| Time | N/A |
|---|---|
| Airport | Tokyo Haneda International Airport (RJTT) |
| Time | Latitude | Longitude | Altitude | Speed | Heading |
|---|---|---|---|---|---|
| 2026-04-10 14:07 | 26.20564 | 127.64926 | 33 ft | 0 kts | 147° |
| 2026-04-10 14:17 | 26.20577 | 127.64917 | 32 ft | 2 kts | 152° |
| 2026-04-10 14:17 | 26.20592 | 127.64909 | 32 ft | 2 kts | 160° |
| 2026-04-10 14:17 | 26.20608 | 127.64904 | 34 ft | 2 kts | 176° |
| 2026-04-10 14:17 | 26.20625 | 127.64906 | 32 ft | 2 kts | 210° |
| 2026-04-10 14:18 | 26.20636 | 127.64919 | 32 ft | 2 kts | 253° |
| 2026-04-10 14:18 | 26.20637 | 127.64924 | 32 ft | 0 kts | 263° |
| 2026-04-10 14:20 | 26.20637 | 127.64921 | 32 ft | 2 kts | 264° |
| 2026-04-10 14:20 | 26.20634 | 127.64882 | 34 ft | 8 kts | 265° |
| 2026-04-10 14:20 | 26.20632 | 127.64808 | 34 ft | 10 kts | 278° |
| 2026-04-10 14:21 | 26.20677 | 127.64748 | 34 ft | 11 kts | 337° |
| 2026-04-10 14:21 | 26.20762 | 127.64737 | 34 ft | 14 kts | 357° |
| 2026-04-10 14:21 | 26.20857 | 127.64733 | 34 ft | 11 kts | 358° |
| 2026-04-10 14:21 | 26.20942 | 127.64723 | 34 ft | 12 kts | 337° |
| 2026-04-10 14:22 | 26.20977 | 127.64643 | 34 ft | 9 kts | 268° |
| 2026-04-10 14:22 | 26.20976 | 127.64639 | 34 ft | 0 kts | 266° |
| 2026-04-10 14:25 | 26.20975 | 127.64628 | 34 ft | 0 kts | 262° |
| 2026-04-10 14:26 | 26.20968 | 127.64592 | 34 ft | 15 kts | 255° |
| 2026-04-10 14:26 | 26.20918 | 127.64524 | 34 ft | 7 kts | 189° |
| 2026-04-10 14:26 | 26.20894 | 127.64525 | 34 ft | 0 kts | 176° |
| 2026-04-10 14:27 | 26.20817 | 127.64530 | 35 ft | 34 kts | 178° |
| 2026-04-10 14:27 | 26.20318 | 127.64553 | 34 ft | 106 kts | 178° |
| 2026-04-10 14:27 | 26.19379 | 127.64594 | 168 ft | 150 kts | 178° |
| 2026-04-10 14:27 | 26.18353 | 127.64670 | 902 ft | 148 kts | 179° |
| 2026-04-10 14:28 | 26.17289 | 127.64754 | 1330 ft | 162 kts | 182° |
| 2026-04-10 14:28 | 26.16098 | 127.64800 | 1575 ft | 181 kts | 183° |
| 2026-04-10 14:28 | 26.14772 | 127.64839 | 1811 ft | 200 kts | 182° |
| 2026-04-10 14:28 | 26.13289 | 127.64892 | 2026 ft | 224 kts | 181° |
| 2026-04-10 14:29 | 26.11673 | 127.64958 | 2322 ft | 244 kts | 181° |
| 2026-04-10 14:29 | 26.09917 | 127.65038 | 2780 ft | 256 kts | 180° |
| 2026-04-10 14:29 | 26.08108 | 127.65123 | 3317 ft | 265 kts | 180° |
| 2026-04-10 14:29 | 26.06264 | 127.65211 | 3954 ft | 268 kts | 180° |
| 2026-04-10 14:30 | 26.04403 | 127.65359 | 4655 ft | 270 kts | 174° |
| 2026-04-10 14:30 | 26.02629 | 127.66103 | 5246 ft | 279 kts | 148° |
| 2026-04-10 14:30 | 26.01331 | 127.67747 | 5775 ft | 292 kts | 118° |
| 2026-04-10 14:30 | 26.00895 | 127.69970 | 6307 ft | 299 kts | 90° |
| 2026-04-10 14:31 | 26.00986 | 127.72309 | 6823 ft | 304 kts | 84° |
| 2026-04-10 14:31 | 26.01520 | 127.74548 | 7355 ft | 306 kts | 61° |
| 2026-04-10 14:31 | 26.02731 | 127.76487 | 7952 ft | 305 kts | 49° |
| 2026-04-10 14:31 | 26.04102 | 127.78310 | 8491 ft | 309 kts | 48° |
| 2026-04-10 14:32 | 26.05500 | 127.80162 | 9053 ft | 313 kts | 49° |
| 2026-04-10 14:32 | 26.06897 | 127.82039 | 9632 ft | 316 kts | 50° |
| 2026-04-10 14:32 | 26.08305 | 127.83948 | 10179 ft | 321 kts | 50° |
| 2026-04-10 14:32 | 26.09731 | 127.85890 | 10433 ft | 335 kts | 50° |
| 2026-04-10 14:33 | 26.11231 | 127.87940 | 10655 ft | 349 kts | 50° |
| 2026-04-10 14:33 | 26.12796 | 127.90082 | 10876 ft | 362 kts | 50° |
| 2026-04-10 14:33 | 26.14413 | 127.92299 | 11083 ft | 374 kts | 50° |
| 2026-04-10 14:33 | 26.16092 | 127.94558 | 11405 ft | 381 kts | 47° |
| 2026-04-10 14:34 | 26.18068 | 127.96517 | 11800 ft | 382 kts | 32° |
| 2026-04-10 14:34 | 26.20319 | 127.98110 | 12225 ft | 384 kts | 28° |
| 2026-04-10 14:34 | 26.22619 | 127.99643 | 12649 ft | 386 kts | 27° |
| 2026-04-10 14:34 | 26.24936 | 128.01189 | 13074 ft | 389 kts | 27° |
| 2026-04-10 14:35 | 26.27233 | 128.02730 | 13480 ft | 392 kts | 27° |
| 2026-04-10 14:35 | 26.29583 | 128.04313 | 13872 ft | 395 kts | 27° |
| 2026-04-10 14:35 | 26.31943 | 128.05905 | 14218 ft | 398 kts | 27° |
| 2026-04-10 14:35 | 26.34324 | 128.07515 | 14572 ft | 401 kts | 27° |
| 2026-04-10 14:36 | 26.36721 | 128.09137 | 14929 ft | 404 kts | 27° |
| 2026-04-10 14:36 | 26.39128 | 128.10767 | 15296 ft | 406 kts | 27° |
| 2026-04-10 14:36 | 26.41553 | 128.12410 | 15652 ft | 409 kts | 27° |
| 2026-04-10 14:36 | 26.43998 | 128.14069 | 16023 ft | 411 kts | 27° |
| 2026-04-10 14:37 | 26.46428 | 128.15718 | 16387 ft | 414 kts | 27° |
| 2026-04-10 14:37 | 26.48894 | 128.17391 | 16743 ft | 416 kts | 27° |
| 2026-04-10 14:37 | 26.51379 | 128.19079 | 17110 ft | 419 kts | 27° |
| 2026-04-10 14:37 | 26.53878 | 128.20777 | 17462 ft | 422 kts | 27° |
| 2026-04-10 14:38 | 26.56395 | 128.22489 | 17818 ft | 424 kts | 27° |
| 2026-04-10 14:38 | 26.58923 | 128.24208 | 18165 ft | 427 kts | 27° |
| 2026-04-10 14:38 | 26.61479 | 128.25948 | 18469 ft | 429 kts | 27° |
| 2026-04-10 14:38 | 26.64037 | 128.27690 | 18779 ft | 432 kts | 27° |
| 2026-04-10 14:39 | 26.66568 | 128.29440 | 19088 ft | 435 kts | 28° |
| 2026-04-10 14:39 | 26.68967 | 128.31540 | 19384 ft | 443 kts | 40° |
| 2026-04-10 14:39 | 26.71040 | 128.34131 | 19701 ft | 448 kts | 48° |
| 2026-04-10 14:39 | 26.72990 | 128.36870 | 19994 ft | 451 kts | 49° |
| 2026-04-10 14:40 | 26.74934 | 128.39634 | 20297 ft | 453 kts | 49° |
| 2026-04-10 14:40 | 26.76875 | 128.42386 | 20587 ft | 455 kts | 49° |
| 2026-04-10 14:40 | 26.78846 | 128.45172 | 20880 ft | 458 kts | 48° |
| 2026-04-10 14:40 | 26.80837 | 128.47982 | 21171 ft | 460 kts | 48° |
| 2026-04-10 14:41 | 26.82833 | 128.50798 | 21466 ft | 462 kts | 48° |
| 2026-04-10 14:41 | 26.84839 | 128.53629 | 21756 ft | 464 kts | 48° |
| 2026-04-10 14:41 | 26.86853 | 128.56472 | 22031 ft | 467 kts | 48° |
| 2026-04-10 14:41 | 26.88880 | 128.59335 | 22333 ft | 469 kts | 48° |
| 2026-04-10 14:42 | 26.90919 | 128.62204 | 22618 ft | 471 kts | 47° |
| 2026-04-10 14:42 | 26.93124 | 128.64850 | 22885 ft | 468 kts | 37° |
| 2026-04-10 14:42 | 26.95728 | 128.66997 | 23156 ft | 462 kts | 25° |
| 2026-04-10 14:42 | 26.98525 | 128.68759 | 23441 ft | 461 kts | 22° |
| 2026-04-10 14:43 | 27.01368 | 128.70463 | 23689 ft | 463 kts | 21° |
| 2026-04-10 14:43 | 27.04228 | 128.72178 | 23929 ft | 465 kts | 22° |
| 2026-04-10 14:43 | 27.07050 | 128.73878 | 24159 ft | 466 kts | 22° |
| 2026-04-10 14:43 | 27.09918 | 128.75612 | 24393 ft | 468 kts | 22° |
| 2026-04-10 14:44 | 27.12801 | 128.77360 | 24625 ft | 470 kts | 22° |
| 2026-04-10 14:44 | 27.15690 | 128.79114 | 24858 ft | 472 kts | 22° |
| 2026-04-10 14:44 | 27.18550 | 128.80852 | 25073 ft | 473 kts | 22° |
| 2026-04-10 14:44 | 27.21456 | 128.82619 | 25286 ft | 475 kts | 22° |
| 2026-04-10 14:45 | 27.24374 | 128.84395 | 25522 ft | 477 kts | 22° |
| 2026-04-10 14:45 | 27.27298 | 128.86176 | 25747 ft | 479 kts | 21° |
| 2026-04-10 14:45 | 27.30232 | 128.87964 | 25974 ft | 481 kts | 21° |
| 2026-04-10 14:45 | 27.33181 | 128.89762 | 26200 ft | 483 kts | 21° |
| 2026-04-10 14:46 | 27.36135 | 128.91565 | 26432 ft | 484 kts | 21° |
| 2026-04-10 14:46 | 27.39074 | 128.93359 | 26665 ft | 486 kts | 21° |
| 2026-04-10 14:46 | 27.42057 | 128.95182 | 26909 ft | 488 kts | 21° |
| 2026-04-10 14:46 | 27.45054 | 128.97014 | 27153 ft | 490 kts | 21° |
| 2026-04-10 14:47 | 27.48059 | 128.98853 | 27390 ft | 492 kts | 21° |
| 2026-04-10 14:47 | 27.51075 | 129.00699 | 27645 ft | 494 kts | 21° |
| 2026-04-10 14:47 | 27.54112 | 129.02559 | 27897 ft | 496 kts | 21° |
| 2026-04-10 14:47 | 27.57145 | 129.04418 | 28145 ft | 498 kts | 21° |
| 2026-04-10 14:48 | 27.60158 | 129.06266 | 28384 ft | 500 kts | 21° |
| 2026-04-10 14:48 | 27.63219 | 129.08144 | 28637 ft | 502 kts | 21° |
| 2026-04-10 14:48 | 27.66316 | 129.10046 | 28881 ft | 504 kts | 21° |
| 2026-04-10 14:48 | 27.69369 | 129.11922 | 29132 ft | 506 kts | 21° |
| 2026-04-10 14:49 | 27.72511 | 129.13854 | 29380 ft | 509 kts | 21° |
| 2026-04-10 14:49 | 27.75585 | 129.15745 | 29636 ft | 511 kts | 21° |
| 2026-04-10 14:49 | 27.78727 | 129.17679 | 29877 ft | 513 kts | 21° |
| 2026-04-10 14:49 | 27.81878 | 129.19621 | 30122 ft | 515 kts | 21° |
| 2026-04-10 14:50 | 27.85040 | 129.21571 | 30335 ft | 518 kts | 21° |
| 2026-04-10 14:50 | 27.88169 | 129.23501 | 30554 ft | 520 kts | 21° |
| 2026-04-10 14:50 | 27.91371 | 129.25478 | 30802 ft | 522 kts | 21° |
| 2026-04-10 14:50 | 27.94577 | 129.27459 | 31028 ft | 524 kts | 21° |
| 2026-04-10 14:51 | 27.97786 | 129.29443 | 31255 ft | 527 kts | 21° |
| 2026-04-10 14:51 | 28.00971 | 129.31413 | 31493 ft | 529 kts | 21° |
| 2026-04-10 14:51 | 28.04213 | 129.33419 | 31718 ft | 531 kts | 21° |
| 2026-04-10 14:51 | 28.07476 | 129.35441 | 31935 ft | 533 kts | 21° |
| 2026-04-10 14:52 | 28.10738 | 129.37464 | 32168 ft | 535 kts | 21° |
| 2026-04-10 14:52 | 28.14008 | 129.39493 | 32387 ft | 537 kts | 21° |
| 2026-04-10 14:52 | 28.17300 | 129.41536 | 32592 ft | 539 kts | 22° |
| 2026-04-10 14:52 | 28.20556 | 129.43558 | 32781 ft | 541 kts | 22° |
| 2026-04-10 14:53 | 28.23856 | 129.45611 | 32894 ft | 537 kts | 22° |
| 2026-04-10 14:53 | 28.27096 | 129.47637 | 32912 ft | 522 kts | 21° |
| 2026-04-10 14:53 | 28.30262 | 129.49614 | 32907 ft | 514 kts | 21° |
| 2026-04-10 14:54 | 28.36522 | 129.53524 | 32893 ft | 513 kts | 22° |
| 2026-04-10 14:54 | 28.39467 | 129.55803 | 32889 ft | 523 kts | 34° |
| 2026-04-10 14:54 | 28.42029 | 129.58795 | 32883 ft | 533 kts | 48° |
| 2026-04-10 14:54 | 28.43985 | 129.62413 | 32889 ft | 539 kts | 63° |
| 2026-04-10 14:55 | 28.45203 | 129.66452 | 32887 ft | 542 kts | 78° |
| 2026-04-10 14:55 | 28.46340 | 129.74874 | 32881 ft | 543 kts | 84° |
| 2026-04-10 14:56 | 28.47045 | 129.81980 | 32888 ft | 543 kts | 85° |
| 2026-04-10 14:56 | 28.47888 | 129.90525 | 32893 ft | 543 kts | 84° |
| 2026-04-10 14:57 | 28.48777 | 129.99068 | 32897 ft | 543 kts | 84° |
| 2026-04-10 14:57 | 28.49630 | 130.07077 | 32896 ft | 543 kts | 84° |
| 2026-04-10 14:58 | 28.51441 | 130.15395 | 32905 ft | 541 kts | 63° |
| 2026-04-10 14:58 | 28.55293 | 130.22680 | 32921 ft | 537 kts | 52° |
| 2026-04-10 14:59 | 28.59541 | 130.29655 | 32918 ft | 536 kts | 51° |
| 2026-04-10 14:59 | 28.63800 | 130.36566 | 32918 ft | 536 kts | 51° |
| 2026-04-10 15:00 | 28.68048 | 130.43549 | 32916 ft | 536 kts | 51° |
| 2026-04-10 15:00 | 28.72279 | 130.50567 | 32915 ft | 536 kts | 51° |
| 2026-04-10 15:01 | 28.76494 | 130.57582 | 32980 ft | 535 kts | 51° |
| 2026-04-10 15:01 | 28.80694 | 130.64560 | 33029 ft | 534 kts | 51° |
| 2026-04-10 15:02 | 28.84900 | 130.71496 | 32922 ft | 536 kts | 51° |
| 2026-04-10 15:02 | 28.89177 | 130.78477 | 32857 ft | 537 kts | 51° |
| 2026-04-10 15:03 | 28.93490 | 130.85432 | 32925 ft | 535 kts | 50° |
| 2026-04-10 15:03 | 28.97826 | 130.92328 | 32929 ft | 534 kts | 50° |
| 2026-04-10 15:04 | 29.02218 | 130.99214 | 32800 ft | 537 kts | 49° |
| 2026-04-10 15:04 | 29.06641 | 131.06061 | 32725 ft | 538 kts | 49° |
| 2026-04-10 15:05 | 29.13337 | 131.16296 | 32950 ft | 532 kts | 48° |